Time;durP1;ratioP1;P1;durP2;ratioP2;P2;SDS_P1;SDS_P2;PMS_P1;PMS_P2;Temp;Humidity;BMP_temperature;BMP_pressure;BME280_temperature;BME280_humidity;BME280_pressure;Samples;Min_cycle;Max_cycle;Signal;HPM_P1;HPM_P2
2022/01/03 14:06:21;;;;;;;;;;;22.80;51.40;;;;;;6224954;22;1873696;-73
2022/01/03 14:08:50;;;;;;;;;;;22.40;47.10;;;;;;6305743;22;19914;-73
2022/01/03 14:11:17;;;;;;;;;;;22.00;42.10;;;;;;6307969;22;19957;-73
2022/01/03 14:13:43;;;;;;;;;;;21.60;44.10;;;;;;6306491;22;19926;-73
2022/01/03 14:18:51;;;;;;;16.45;3.92;;;21.40;42.30;;;;;;5076497;22;20394;-76
2022/01/03 14:21:26;;;;;;;14.85;3.88;;;21.40;43.60;;;;;;5045581;28;20060;-76
2022/01/03 14:23:54;;;;;;;15.40;3.10;;;21.60;44.50;;;;;;5027439;28;20055;-78
2022/01/03 14:26:26;;;;;;;16.67;4.03;;;21.80;45.10;;;;;;5061984;28;20152;-80
2022/01/03 14:28:58;;;;;;;16.38;3.90;;;22.00;44.80;;;;;;5044414;28;20053;-80
2022/01/03 14:31:39;;;;;;;13.65;3.17;;;22.10;44.90;;;;;;5025231;28;20037;-78
2022/01/03 14:34:05;;;;;;;14.38;4.03;;;22.20;45.10;;;;;;5026742;28;20029;-79
2022/01/03 14:36:40;;;;;;;11.15;3.47;;;22.20;45.20;;;;;;5044055;28;20113;-75
2022/01/03 14:39:05;;;;;;;15.65;4.13;;;22.30;45.20;;;;;;5043501;28;20071;-77
2022/01/03 14:41:31;;;;;;;10.85;3.38;;;22.30;45.20;;;;;;5026565;28;20404;-77
2022/01/03 14:44:03;;;;;;;13.85;3.35;;;22.40;45.30;;;;;;5010320;28;20052;-78
2022/01/03 14:46:40;;;;;;;13.80;3.45;;;22.40;45.40;;;;;;5025847;28;20033;-81
2022/01/03 14:49:15;;;;;;;12.40;3.55;;;22.40;46.00;;;;;;5043760;28;20403;-77
2022/01/03 14:51:46;;;;;;;11.10;3.40;;;22.40;46.10;;;;;;5044381;28;20025;-77
2022/01/03 14:54:23;;;;;;;13.10;3.38;;;22.40;46.40;;;;;;5025709;28;20025;-77
2022/01/03 14:56:51;;;;;;;13.05;3.78;;;22.40;46.50;;;;;;5041858;28;20650;-79
2022/01/03 14:59:20;;;;;;;10.00;2.97;;;22.40;46.90;;;;;;5043864;28;20047;-77
2022/01/03 15:01:50;;;;;;;13.85;3.40;;;22.40;47.20;;;;;;5042387;28;20064;-79
2022/01/03 15:04:17;;;;;;;11.70;3.63;;;22.40;46.80;;;;;;5042721;28;20072;-79
2022/01/03 15:06:44;;;;;;;19.48;3.78;;;22.40;46.90;;;;;;5043023;28;20108;-81
2022/01/03 15:09:10;;;;;;;14.63;3.90;;;22.40;47.30;;;;;;5025166;28;20062;-80
2022/01/03 15:11:36;;;;;;;23.75;3.58;;;22.40;47.50;;;;;;5042559;28;20065;-80
2022/01/03 15:14:02;;;;;;;17.02;3.60;;;22.40;47.40;;;;;;5044256;28;20091;-80
2022/01/03 15:16:27;;;;;;;18.85;4.22;;;22.40;47.50;;;;;;5010100;28;20041;-80
2022/01/03 15:18:54;;;;;;;13.77;3.92;;;22.40;47.70;;;;;;5043442;28;20061;-80
2022/01/03 15:21:20;;;;;;;16.52;4.10;;;22.40;47.70;;;;;;5025942;28;20208;-80
2022/01/03 15:23:46;;;;;;;13.10;3.90;;;22.40;48.50;;;;;;5009458;28;20466;-80
2022/01/03 15:26:11;;;;;;;17.30;4.53;;;22.40;47.90;;;;;;5042450;28;20789;-80
2022/01/03 15:28:37;;;;;;;10.55;3.88;;;22.40;48.90;;;;;;5023127;28;20077;-80
2022/01/03 15:31:06;;;;;;;14.93;4.07;;;22.40;48.20;;;;;;5014953;28;20033;-80
2022/01/03 15:33:33;;;;;;;16.07;4.03;;;22.40;48.30;;;;;;5031454;28;20029;-80
2022/01/03 15:35:58;;;;;;;18.77;4.47;;;22.40;48.30;;;;;;5014694;28;20025;-80
2022/01/03 15:38:25;;;;;;;14.82;4.18;;;22.40;48.50;;;;;;5014544;28;20036;-80
2022/01/03 15:40:52;;;;;;;12.45;4.22;;;22.40;48.50;;;;;;5031144;28;20026;-81
2022/01/03 15:43:18;;;;;;;19.88;4.78;;;22.40;48.60;;;;;;5030995;28;20094;-80
2022/01/03 15:45:45;;;;;;;9.98;3.88;;;22.40;48.60;;;;;;5031106;28;20616;-80
2022/01/03 15:48:11;;;;;;;15.13;3.97;;;22.40;48.70;;;;;;5032095;28;20033;-80
2022/01/03 15:50:37;;;;;;;14.15;4.20;;;22.40;48.80;;;;;;5031126;28;20033;-80
2022/01/03 15:53:04;;;;;;;18.98;4.43;;;22.40;48.90;;;;;;5014323;28;20037;-80
2022/01/03 15:55:30;;;;;;;12.52;4.13;;;22.40;49.10;;;;;;5014065;28;20029;-79
2022/01/03 15:57:56;;;;;;;13.52;4.13;;;22.40;49.20;;;;;;4997594;28;20036;-80
2022/01/03 16:00:26;;;;;;;13.60;4.32;;;22.40;49.20;;;;;;5031922;28;20026;-80
2022/01/03 16:02:52;;;;;;;13.02;3.85;;;22.40;49.30;;;;;;5031764;28;20113;-80
2022/01/03 16:05:18;;;;;;;12.25;4.20;;;22.40;49.50;;;;;;5029843;28;20105;-81
2022/01/03 16:07:44;;;;;;;14.05;3.90;;;22.50;49.90;;;;;;5030477;28;20037;-81
2022/01/03 16:10:10;;;;;;;21.52;4.40;;;22.50;50.50;;;;;;5031284;28;20476;-73
2022/01/03 16:12:39;;;;;;;15.48;4.38;;;22.40;50.80;;;;;;5030348;28;20351;-82
2022/01/03 16:15:06;;;;;;;17.10;4.53;;;22.40;49.50;;;;;;5030192;28;20124;-81
2022/01/03 16:17:32;;;;;;;17.20;4.68;;;22.40;50.20;;;;;;5013873;28;20041;-81
2022/01/03 16:19:58;;;;;;;18.52;4.07;;;22.40;50.10;;;;;;5030225;28;20052;-79
2022/01/03 16:22:24;;;;;;;19.90;7.78;;;22.30;49.80;;;;;;5031696;28;20034;-83
2022/01/03 16:24:50;;;;;;;21.20;8.57;;;22.30;50.10;;;;;;5029752;28;20170;-75
2022/01/03 16:27:16;;;;;;;18.48;6.95;;;22.20;49.10;;;;;;5013493;28;20120;-75
2022/01/03 16:29:42;;;;;;;18.38;8.23;;;22.20;49.40;;;;;;5029618;28;20453;-76
2022/01/03 16:32:08;;;;;;;17.65;8.77;;;22.20;49.50;;;;;;5031462;28;20132;-76
2022/01/03 16:34:35;;;;;;;20.73;8.52;;;22.20;49.40;;;;;;5013348;28;20128;-76
2022/01/03 16:37:02;;;;;;;15.95;7.70;;;22.20;49.60;;;;;;5013502;28;20063;-76
2022/01/03 16:39:28;;;;;;;19.98;8.43;;;22.20;49.80;;;;;;5013450;28;20347;-76
2022/01/03 16:41:55;;;;;;;21.48;8.15;;;22.20;50.20;;;;;;4996496;28;20084;-76
2022/01/03 16:44:20;;;;;;;19.30;7.82;;;22.20;50.20;;;;;;5031131;28;20036;-76
2022/01/03 16:46:47;;;;;;;14.60;7.30;;;22.20;50.40;;;;;;5029670;28;20025;-76
2022/01/03 16:49:13;;;;;;;17.92;7.10;;;22.20;50.40;;;;;;5031545;28;20025;-76
2022/01/03 16:51:40;;;;;;;15.88;7.45;;;22.20;50.60;;;;;;5031227;28;20034;-75
2022/01/03 16:54:06;;;;;;;16.60;7.85;;;22.20;50.70;;;;;;5031035;28;20037;-75
2022/01/03 16:56:32;;;;;;;16.45;7.30;;;22.20;51.00;;;;;;5030689;28;20037;-75
2022/01/03 16:58:58;;;;;;;14.68;7.45;;;22.20;51.10;;;;;;5030864;28;20476;-75
2022/01/03 17:01:24;;;;;;;19.33;7.70;;;22.20;51.10;;;;;;5029494;28;20079;-76
2022/01/03 17:03:53;;;;;;;16.33;7.13;;;22.20;51.70;;;;;;5029676;28;20147;-75
2022/01/03 17:06:20;;;;;;;18.80;7.30;;;22.20;51.30;;;;;;5030202;28;20029;-76
2022/01/03 17:08:46;;;;;;;18.30;7.40;;;22.20;51.50;;;;;;5012916;28;20076;-76
2022/01/03 17:11:14;;;;;;;16.48;7.30;;;22.20;51.70;;;;;;5029616;28;20096;-76
2022/01/03 17:13:41;;;;;;;12.70;6.63;;;22.20;51.70;;;;;;5030495;28;20074;-76
2022/01/03 17:16:07;;;;;;;14.10;6.85;;;22.30;51.80;;;;;;5028862;28;20033;-76
2022/01/03 17:18:33;;;;;;;13.93;6.85;;;22.30;52.00;;;;;;5028798;28;20033;-76
2022/01/03 17:20:58;;;;;;;14.48;6.95;;;22.30;52.00;;;;;;5030375;28;20106;-76
2022/01/03 17:23:25;;;;;;;15.20;7.35;;;22.30;51.90;;;;;;5029088;28;20025;-76
2022/01/03 17:25:51;;;;;;;15.02;7.28;;;22.30;51.90;;;;;;5028728;28;20136;-76
2022/01/03 17:28:19;;;;;;;15.18;6.97;;;22.30;51.90;;;;;;5028838;28;20068;-76
2022/01/03 17:30:45;;;;;;;14.55;7.30;;;22.20;51.80;;;;;;5012609;28;20438;-76
2022/01/03 17:33:11;;;;;;;17.33;8.13;;;22.20;52.10;;;;;;5029018;28;20049;-76
2022/01/03 17:35:37;;;;;;;15.70;6.88;;;22.20;52.10;;;;;;5028622;28;20033;-76
2022/01/03 17:38:04;;;;;;;11.95;6.25;;;22.20;52.10;;;;;;5028559;28;20033;-76
2022/01/03 17:40:29;;;;;;;13.23;6.45;;;22.20;52.10;;;;;;5030175;28;20025;-76
2022/01/03 17:42:55;;;;;;;13.63;6.95;;;22.20;52.30;;;;;;5028597;28;20323;-76
2022/01/03 17:45:24;;;;;;;12.40;6.47;;;22.20;52.30;;;;;;5029354;28;20400;-77
2022/01/03 17:47:50;;;;;;;14.23;6.70;;;22.20;52.20;;;;;;5029932;28;20319;-75
2022/01/03 17:50:16;;;;;;;11.77;6.35;;;22.20;52.30;;;;;;5029734;28;20448;-76
2022/01/03 17:52:42;;;;;;;14.82;6.82;;;22.20;52.10;;;;;;5028244;28;20052;-76
2022/01/03 17:55:08;;;;;;;13.48;6.70;;;22.20;52.20;;;;;;5028191;28;20029;-76
2022/01/03 17:57:34;;;;;;;14.13;6.70;;;22.20;52.20;;;;;;5011711;28;20041;-76
2022/01/03 18:00:03;;;;;;;12.30;6.60;;;22.20;52.10;;;;;;5028242;28;20057;-76
2022/01/03 18:02:31;;;;;;;14.30;6.50;;;22.20;52.20;;;;;;5029657;28;20026;-75
2022/01/03 18:04:57;;;;;;;10.93;6.13;;;22.20;52.30;;;;;;5027904;28;20036;-75
2022/01/03 18:07:22;;;;;;;12.52;6.47;;;22.20;52.30;;;;;;5028488;28;20049;-76
2022/01/03 18:09:48;;;;;;;13.75;6.30;;;22.20;52.40;;;;;;5029488;28;20048;-76
2022/01/03 18:12:14;;;;;;;14.13;6.15;;;22.20;52.50;;;;;;5029520;28;20025;-76
2022/01/03 18:14:40;;;;;;;11.55;6.88;;;22.20;52.40;;;;;;5011407;28;20041;-76
2022/01/03 18:17:05;;;;;;;12.25;6.20;;;22.20;52.40;;;;;;5029346;28;20388;-76
2022/01/03 18:19:31;;;;;;;11.43;6.18;;;22.20;52.50;;;;;;5029097;28;20037;-75
2022/01/03 18:21:57;;;;;;;10.38;5.90;;;22.20;52.40;;;;;;5027921;28;20136;-76
2022/01/03 18:24:23;;;;;;;11.35;6.20;;;22.20;52.30;;;;;;5011592;28;20033;-75
2022/01/03 18:26:49;;;;;;;13.90;6.13;;;22.20;52.20;;;;;;5026794;28;20108;-76
2022/01/03 18:29:15;;;;;;;15.20;6.63;;;22.20;52.30;;;;;;5027926;28;20033;-76
2022/01/03 18:31:41;;;;;;;13.98;6.35;;;22.20;52.20;;;;;;5027018;28;20032;-76
2022/01/03 18:34:07;;;;;;;13.43;6.35;;;22.20;52.50;;;;;;5028267;28;20030;-76
2022/01/03 18:36:34;;;;;;;13.18;6.72;;;22.20;52.30;;;;;;5027735;28;20048;-76
2022/01/03 18:39:05;;;;;;;12.07;6.38;;;22.20;52.40;;;;;;5029334;28;20041;-76
2022/01/03 18:41:30;;;;;;;11.52;6.32;;;22.20;52.30;;;;;;5029411;28;20033;-76
2022/01/03 18:43:56;;;;;;;10.07;5.55;;;22.20;52.30;;;;;;5029261;28;20044;-75
2022/01/03 18:46:22;;;;;;;12.70;6.22;;;22.20;52.30;;;;;;4995313;28;20056;-75
2022/01/03 18:48:47;;;;;;;22.90;6.25;;;22.20;52.40;;;;;;5029270;28;20144;-75
2022/01/03 18:51:13;;;;;;;11.82;6.03;;;22.20;52.40;;;;;;5029387;28;20047;-76
2022/01/03 18:53:39;;;;;;;12.50;6.18;;;22.20;52.40;;;;;;5011633;28;20045;-76
2022/01/03 18:56:05;;;;;;;11.32;6.40;;;22.10;52.40;;;;;;5027583;28;20132;-76
2022/01/03 18:58:31;;;;;;;11.52;6.15;;;22.10;52.30;;;;;;5029111;28;20042;-76
2022/01/03 19:00:57;;;;;;;10.85;6.22;;;22.10;52.30;;;;;;5029398;28;20055;-76
2022/01/03 19:03:23;;;;;;;10.60;5.82;;;22.10;52.20;;;;;;5027911;28;20036;-76
2022/01/03 19:05:49;;;;;;;11.02;5.95;;;22.10;52.30;;;;;;5032765;28;20025;-76
2022/01/03 19:08:15;;;;;;;11.23;5.93;;;22.10;52.20;;;;;;5033199;28;20108;-76
2022/01/03 19:10:40;;;;;;;11.43;5.50;;;22.10;52.20;;;;;;5032731;28;20497;-76
2022/01/03 19:13:06;;;;;;;11.10;5.72;;;22.10;52.90;;;;;;5015199;28;20110;-76
2022/01/03 19:15:33;;;;;;;10.90;5.90;;;22.10;52.30;;;;;;5031219;28;20513;-76
2022/01/03 19:17:59;;;;;;;10.93;5.65;;;22.10;52.60;;;;;;5014754;28;20057;-76
2022/01/03 19:20:26;;;;;;;11.88;5.88;;;22.10;52.40;;;;;;5031316;28;20041;-76
2022/01/03 19:22:53;;;;;;;12.20;5.95;;;22.10;52.30;;;;;;5014981;28;20044;-75
2022/01/03 19:25:19;;;;;;;12.18;6.40;;;22.10;52.30;;;;;;5031039;28;20041;-76
2022/01/03 19:27:47;;;;;;;11.50;5.72;;;22.10;52.20;;;;;;5032537;28;20449;-75
2022/01/03 19:30:14;;;;;;;9.73;5.93;;;22.10;52.30;;;;;;5032498;28;20029;-76
2022/01/03 19:32:59;;;;;;;11.48;5.85;;;22.10;52.30;;;;;;5031310;28;20111;-75
2022/01/03 19:38:09;;;;;;;9.27;5.45;;;22.10;52.30;;;;;;5030932;28;20045;-76
2022/01/03 19:40:35;;;;;;;12.35;6.20;;;22.00;52.10;;;;;;5030928;28;20087;-76
2022/01/03 19:43:04;;;;;;;13.15;5.80;;;22.00;52.40;;;;;;5032356;28;20465;-76
2022/01/03 19:45:30;;;;;;;10.70;5.45;;;22.10;52.30;;;;;;5031039;28;20028;-76
2022/01/03 19:47:56;;;;;;;10.32;5.85;;;22.10;52.50;;;;;;5032459;28;20025;-76
2022/01/03 19:50:22;;;;;;;9.05;5.70;;;22.00;52.30;;;;;;5032510;28;20392;-75
2022/01/03 19:52:48;;;;;;;10.57;5.68;;;22.10;52.30;;;;;;5032227;28;20025;-76
2022/01/03 19:55:14;;;;;;;9.57;5.18;;;22.10;52.30;;;;;;5032273;28;20036;-76
2022/01/03 19:57:42;;;;;;;10.82;5.75;;;22.10;52.30;;;;;;4998076;28;20050;-76
2022/01/03 20:00:11;;;;;;;8.50;4.75;;;22.10;52.30;;;;;;5031150;28;20053;-76
2022/01/03 20:02:41;;;;;;;11.65;5.65;;;22.10;52.20;;;;;;5032251;28;20071;-76
2022/01/03 20:05:08;;;;;;;10.68;5.88;;;22.10;52.30;;;;;;5030580;28;20068;-76
2022/01/03 20:07:43;;;;;;;9.48;5.03;;;22.10;52.30;;;;;;4998072;28;20029;-76
2022/01/03 20:10:42;;;;;;;11.00;5.10;;;22.10;52.50;;;;;;5031710;28;20041;-76
2022/01/03 20:13:08;;;;;;;10.68;5.40;;;22.10;52.30;;;;;;5013934;28;20045;-76
2022/01/03 20:15:35;;;;;;;10.88;5.55;;;22.10;52.20;;;;;;4997280;28;20124;-76
2022/01/03 20:18:02;;;;;;;9.90;5.43;;;22.10;52.20;;;;;;5029971;28;20140;-76
2022/01/03 20:20:43;;;;;;;13.43;5.63;;;22.10;52.30;;;;;;4988911;28;20047;-76
2022/01/03 20:23:09;;;;;;;14.90;5.88;;;22.00;53.00;;;;;;4957953;28;20475;-76
2022/01/03 20:25:34;;;;;;;11.15;5.55;;;22.10;52.90;;;;;;4958086;28;20035;-75
2022/01/03 20:28:02;;;;;;;10.35;5.20;;;22.10;53.20;;;;;;4977665;28;20035;-75
2022/01/03 20:30:30;;;;;;;11.48;5.25;;;22.10;52.70;;;;;;4930020;29;20031;-75
2022/01/03 20:32:56;;;;;;;12.40;5.30;;;22.20;53.10;;;;;;4961138;28;20039;-73
2022/01/03 20:35:22;;;;;;;9.90;4.93;;;22.30;52.80;;;;;;4960004;28;20031;-75
2022/01/03 20:37:48;;;;;;;14.25;5.22;;;22.40;52.40;;;;;;4941215;29;20122;-75
2022/01/03 20:40:14;;;;;;;11.77;5.10;;;22.40;52.90;;;;;;4955723;28;20470;-75
2022/01/03 20:42:41;;;;;;;13.75;5.28;;;22.40;52.60;;;;;;4955703;29;20033;-75
2022/01/03 20:45:10;;;;;;;15.10;5.00;;;22.50;52.60;;;;;;4955491;28;20031;-75
2022/01/03 20:47:35;;;;;;;10.15;4.80;;;22.40;53.10;;;;;;4953355;28;20071;-75
2022/01/03 20:50:03;;;;;;;14.40;5.70;;;22.30;53.00;;;;;;4970166;28;20062;-75
2022/01/03 20:52:29;;;;;;;14.52;6.80;;;22.30;52.70;;;;;;4950152;28;20094;-77
2022/01/03 20:54:55;;;;;;;27.73;18.40;;;22.20;52.80;;;;;;4970692;28;20490;-76
2022/01/03 20:57:22;;;;;;;55.47;42.10;;;22.20;52.50;;;;;;4971429;28;20033;-76
2022/01/03 20:59:48;;;;;;;82.40;70.28;;;22.20;52.60;;;;;;4970861;28;20023;-77
2022/01/03 21:02:15;;;;;;;120.88;107.63;;;22.20;52.70;;;;;;4953862;28;20031;-75
2022/01/03 21:04:42;;;;;;;117.07;97.60;;;22.20;52.70;;;;;;4953625;28;20063;-77
2022/01/03 21:07:08;;;;;;;126.28;110.40;;;22.20;52.60;;;;;;4936990;28;20431;-77
2022/01/03 21:09:34;;;;;;;142.38;122.47;;;22.20;52.80;;;;;;4953158;28;20035;-77
2022/01/03 21:12:00;;;;;;;139.68;120.85;;;22.20;52.90;;;;;;4953441;28;20503;-76
2022/01/03 21:14:26;;;;;;;134.30;119.60;;;22.10;52.80;;;;;;4920599;28;20059;-76
2022/01/03 21:16:52;;;;;;;117.22;102.90;;;22.20;53.00;;;;;;4956449;28;20066;-77
2022/01/03 21:19:17;;;;;;;115.80;103.35;;;22.10;53.60;;;;;;4956600;28;20035;-77
2022/01/03 21:21:43;;;;;;;129.95;112.10;;;22.10;52.80;;;;;;4960525;28;20083;-75
2022/01/03 21:24:09;;;;;;;136.85;118.00;;;22.10;53.10;;;;;;4944325;28;20034;-78
2022/01/03 21:26:39;;;;;;;131.68;117.25;;;22.10;53.00;;;;;;4952249;28;20039;-77
2022/01/03 21:29:05;;;;;;;131.45;115.90;;;22.20;53.10;;;;;;4940525;28;20028;-76
2022/01/03 21:31:32;;;;;;;133.65;117.25;;;22.10;53.10;;;;;;4952264;29;20050;-76
2022/01/03 21:33:58;;;;;;;130.57;115.60;;;22.20;53.00;;;;;;4960701;28;20079;-78
2022/01/03 21:36:24;;;;;;;127.03;113.05;;;22.10;53.00;;;;;;4941433;28;20030;-75
2022/01/03 21:38:53;;;;;;;125.60;111.40;;;22.10;53.00;;;;;;4972500;28;20031;-77
2022/01/03 21:41:21;;;;;;;125.65;109.00;;;22.10;53.10;;;;;;4937010;28;20026;-76
2022/01/03 21:43:47;;;;;;;122.97;109.43;;;22.10;53.10;;;;;;4957818;28;20033;-76
2022/01/03 21:46:12;;;;;;;122.45;108.55;;;22.10;53.30;;;;;;4965248;28;20023;-78
2022/01/03 21:48:38;;;;;;;116.40;103.63;;;22.10;53.40;;;;;;4963775;28;20063;-80
2022/01/03 21:51:05;;;;;;;125.25;107.38;;;22.10;53.20;;;;;;4960378;28;20030;-77
2022/01/03 21:53:32;;;;;;;120.28;106.93;;;22.20;53.30;;;;;;4960060;28;20031;-79
2022/01/03 21:56:00;;;;;;;117.00;104.07;;;22.10;53.10;;;;;;4932613;28;20082;-77
2022/01/03 21:58:28;;;;;;;115.95;102.22;;;22.10;53.10;;;;;;4940817;28;20031;-76
2022/01/03 22:00:55;;;;;;;115.70;101.95;;;22.10;53.10;;;;;;4968732;28;20030;-78
2022/01/03 22:03:21;;;;;;;112.95;100.55;;;22.10;53.00;;;;;;4951822;28;20031;-80
2022/01/03 22:05:47;;;;;;;111.55;99.30;;;22.10;53.10;;;;;;4936262;28;20407;-78
2022/01/03 22:08:13;;;;;;;112.60;99.60;;;22.20;53.20;;;;;;4940357;28;20722;-81
2022/01/03 22:10:46;;;;;;;111.68;99.53;;;22.10;53.00;;;;;;4942654;28;20095;-79
2022/01/03 22:13:11;;;;;;;106.68;95.10;;;22.10;53.10;;;;;;4932529;28;20129;-79
2022/01/03 22:15:37;;;;;;;114.45;96.90;;;22.10;53.10;;;;;;4945556;28;20495;-81
2022/01/03 22:18:04;;;;;;;107.68;95.18;;;22.20;53.60;;;;;;4935785;28;20110;-81
2022/01/03 22:20:30;;;;;;;105.18;92.55;;;22.10;53.70;;;;;;4955151;28;20121;-72
2022/01/03 22:22:56;;;;;;;90.75;78.97;;;22.10;53.60;;;;;;4960486;28;20023;-81
2022/01/03 22:25:22;;;;;;;95.70;84.07;;;22.00;52.80;;;;;;4960332;28;20031;-88
2022/01/03 22:27:48;;;;;;;33.97;26.50;;;21.90;52.30;;;;;;4940442;28;20154;-86
2022/01/03 22:30:14;;;;;;;44.80;35.95;;;21.70;47.60;;;;;;4953063;28;20035;-81
2022/01/03 22:32:40;;;;;;;46.17;35.45;;;21.70;48.10;;;;;;4964374;28;20122;-83
2022/01/03 22:35:07;;;;;;;51.17;40.40;;;21.70;48.10;;;;;;4938654;28;20031;-84
2022/01/03 22:37:33;;;;;;;59.63;41.85;;;21.70;49.00;;;;;;4917739;28;20049;-84
2022/01/03 22:39:59;;;;;;;52.65;42.17;;;21.80;50.60;;;;;;4942522;28;20027;-86
2022/01/03 22:42:26;;;;;;;51.47;43.13;;;21.80;50.30;;;;;;4937921;29;20027;-83
2022/01/03 22:44:52;;;;;;;53.95;43.35;;;21.80;50.10;;;;;;4938802;28;20391;-82
2022/01/03 22:47:21;;;;;;;50.83;41.47;;;21.80;50.20;;;;;;4960681;28;20037;-83
2022/01/03 22:49:48;;;;;;;54.05;42.08;;;21.90;50.20;;;;;;4937679;28;20082;-85
2022/01/03 22:52:15;;;;;;;52.30;42.30;;;21.90;50.30;;;;;;4950150;29;20143;-88
2022/01/03 22:54:42;;;;;;;49.88;39.75;;;21.90;50.30;;;;;;4938144;28;20035;-81
2022/01/03 22:57:08;;;;;;;48.50;40.05;;;21.90;50.30;;;;;;4955151;28;20038;-83
2022/01/03 22:59:34;;;;;;;48.22;40.08;;;21.90;50.30;;;;;;4933955;28;20035;-81
2022/01/03 23:02:04;;;;;;;48.63;40.28;;;22.00;50.50;;;;;;4949960;28;20034;-81
2022/01/03 23:04:33;;;;;;;46.72;37.95;;;21.90;50.50;;;;;;4931103;28;20035;-81
2022/01/03 23:06:59;;;;;;;46.17;37.78;;;22.00;50.60;;;;;;4945765;28;20031;-82
2022/01/03 23:09:28;;;;;;;47.30;37.83;;;21.90;50.60;;;;;;4946501;28;20051;-81
2022/01/03 23:11:54;;;;;;;45.38;36.63;;;21.90;50.70;;;;;;4950049;28;20046;-80
2022/01/03 23:14:20;;;;;;;43.17;36.53;;;22.00;50.80;;;;;;4931859;28;20035;-85
2022/01/03 23:16:46;;;;;;;41.13;35.45;;;22.00;50.80;;;;;;4944913;28;20039;-83
2022/01/03 23:19:13;;;;;;;45.85;37.60;;;21.90;50.80;;;;;;4935200;28;20049;-85
2022/01/03 23:21:43;;;;;;;46.05;36.38;;;22.00;50.90;;;;;;4958130;28;20041;-86
2022/01/03 23:24:24;;;;;;;43.83;35.97;;;22.00;51.00;;;;;;4942932;28;20035;-87
2022/01/03 23:26:50;;;;;;;45.08;36.65;;;22.00;51.00;;;;;;4934078;29;20031;-86
2022/01/03 23:29:16;;;;;;;40.90;34.30;;;22.00;51.00;;;;;;4947161;28;20023;-87
2022/01/03 23:31:44;;;;;;;42.95;35.38;;;22.00;51.00;;;;;;4944251;28;20026;-86
2022/01/03 23:34:20;;;;;;;40.55;34.05;;;22.00;51.10;;;;;;4931225;28;20039;-88
2022/01/03 23:36:51;;;;;;;40.63;33.40;;;22.00;51.30;;;;;;4929478;28;20031;-84
2022/01/03 23:39:18;;;;;;;40.35;33.85;;;22.00;51.20;;;;;;4926735;28;20036;-81
2022/01/03 23:41:44;;;;;;;40.20;33.15;;;22.00;51.00;;;;;;4955480;28;20039;-83
2022/01/03 23:44:11;;;;;;;39.35;33.03;;;22.00;51.40;;;;;;4929011;28;20034;-83
2022/01/03 23:46:37;;;;;;;41.65;33.72;;;21.90;51.30;;;;;;4941033;28;20479;-83
2022/01/03 23:49:03;;;;;;;44.08;33.05;;;22.00;51.50;;;;;;4950682;28;20057;-84
2022/01/03 23:51:29;;;;;;;41.03;32.22;;;21.90;51.50;;;;;;4922284;28;20043;-83
2022/01/03 23:53:55;;;;;;;38.78;33.20;;;21.90;51.50;;;;;;4937862;29;20121;-82
2022/01/03 23:56:24;;;;;;;37.42;31.33;;;21.90;51.60;;;;;;4955261;28;20135;-84
2022/01/03 23:58:50;;;;;;;37.93;32.63;;;21.90;51.60;;;;;;4951105;28;20031;-83
